Timber Mountain, Nevada Weather observations

Data are for 10 minute period ending at time listed.
 Day   Time   Solar   Ave.   Ave.  Ave.  Vector  Max.   Baro.   Total    
  of    of     Rad.   Air    Rel.  Wind   Wind   Wind  Press.  Precip.   
Year   Day            Temp.  Hum.  Speed  Dir.   Gust                    
2016   (PST)  Kw/m2    F      %     mph   deg.    mph    mb.     in.     
-------------------------------------------------------------------------
 271    2:00   0.00   54.6    29    4.3   120     6.5   816.0    0.00 
 271    3:00   0.00   55.0    30    3.9   113     5.8   815.5    0.00 
 271    4:00   0.00   53.8    32    5.1    81     7.5   815.4    0.00 
 271    5:00   0.00   53.2    32    5.5    84     7.2   815.4    0.00 
 271    6:00   0.00   52.1    34    5.0    85     7.1   815.5    0.00 
 271    7:00   0.11   58.1    29    4.7    99     6.5   815.7    0.00 
 271    8:00   0.35   70.1    19    5.2   125    10.1   816.0    0.00 
 271    9:00   0.55   72.4    18    6.1   132    11.8   816.4    0.00 
 271   10:00   0.71   73.4    18    7.1   136    16.1   816.4    0.00 
 271   11:00   0.83   74.6    17    7.9   119    18.3   816.0    0.00 
 271   12:00   0.87   75.7    15    8.7   117    22.4   815.4    0.00 
 271   13:00   0.85   77.5    14    7.4   129    17.5   814.8    0.00 
 271   14:00   0.77   77.4    13    7.5   130    16.4   814.4    0.00 
 271   15:00   0.62   78.0    12    6.4   142    14.5   814.0    0.00 
 271   16:00   0.42   77.6    12    5.8   142    15.0   813.7    0.00 
 271   17:00   0.21   75.8    13    7.2   118    12.6   813.6    0.00 
 271   18:00   0.03   70.9    16    5.1   163    11.6   813.7    0.00 
 271   19:00   0.00   65.1    20    3.7   161    10.2   813.8    0.00 
 271   20:00   0.00   61.9    23    5.5   142    14.3   813.9    0.00 
 271   21:00   0.00   64.9    26   10.4   141    17.5   814.3    0.00 
 271   22:00   0.00   62.8    30    5.7   118    16.8   814.3    0.00 
 271   23:00   0.00   62.0    31    5.8   103    14.2   814.3    0.00 
 272    0:00   0.00   56.3    38    5.2   110     8.6   814.0    0.00 
 272    1:00   0.00   56.9    38    4.6   104     9.2   814.1    0.00 

Return to Timber Mountain graphs page.


Western Regional Climate Center,wrcc@dri.edu